| time (UTC) | temp C | wind direction | speed KPH | gust KPH | rain 1hr cm | rain 24hr cm | rain mn cm | humidity % | barometer mb |
| 20260905222825 | 12 | 147 | 11.3 | 14.5 | 0.00 | 0.00 | 0.00 | 1019.6 | |
| 20260905221932 | 12 | 181 | 20.9 | 32.2 | 0.00 | 0.00 | 0.00 | 1019.6 | |
| 20260905221012 | 12 | 172 | 20.9 | 32.2 | 0.00 | 0.00 | 0.00 | 1019.6 | |
| 20260905220011 | 12 | 159 | 14.5 | 32.2 | 0.00 | 0.00 | 0.00 | 1019.6 | |
| 20260905215123 | 12 | 147 | 29.0 | 61.2 | 0.00 | 0.00 | 0.00 | 1019.5 | |
| 20260905214215 | 12 | 163 | 11.3 | 14.5 | 0.00 | 0.00 | 0.00 | 1019.8 | |
| 20260905213305 | 12 | 158 | 20.9 | 32.2 | 0.00 | 0.00 | 0.00 | 1019.6 | |
| 20260905212442 | 12 | 133 | 6.4 | 14.5 | 0.00 | 0.00 | 0.00 | 1019.5 | |
| 20260905211505 | 12 | 151 | 11.3 | 14.5 | 0.00 | 0.00 | 0.00 | 1019.3 | |
| 20260905210515 | 12 | 150 | 17.7 | 25.7 | 0.00 | 0.00 | 0.00 | 1019.7 | |
| 20260905205612 | 12 | 150 | 14.5 | 17.7 | 0.00 | 0.00 | 0.00 | 1019.5 | |
| 20260905204615 | 12 | 166 | 14.5 | 17.7 | 0.00 | 0.00 | 0.00 | 1019.6 | |
| 20260905203715 | 12 | 127 | 11.3 | 17.7 | 0.00 | 0.00 | 0.00 | 1019.1 | |
| 20260905202815 | 12 | 163 | 17.7 | 25.7 | 0.00 | 0.00 | 0.00 | 1019.1 | |
| 20260905201844 | 12 | 150 | 17.7 | 25.7 | 0.00 | 0.00 | 0.00 | 1019.2 | |
| 20260905200922 | 12 | 179 | 11.3 | 17.7 | 0.00 | 0.00 | 0.00 | 1019.2 | |
| 20260905200051 | 12 | 139 | 6.4 | 6.4 | 0.00 | 0.00 | 0.00 | 1019.0 | |
| 20260905195212 | 12 | 172 | 29.0 | 40.2 | 0.00 | 0.00 | 0.00 | 1019.0 | |
| 20260905194212 | 12 | 153 | 17.7 | 32.2 | 0.00 | 0.00 | 0.00 | 1019.0 | |
| 20260905193315 | 12 | 126 | 29.0 | 40.2 | 0.00 | 0.00 | 0.00 | 1018.8 | |
| 20260905192323 | 12 | 176 | 32.2 | 61.2 | 0.00 | 0.00 | 0.00 | 1019.1 | |
| 20260905191523 | 12 | 142 | 14.5 | 17.7 | 0.00 | 0.00 | 0.00 | 1019.1 | |
| 20260905190555 | 12 | 137 | 6.4 | 14.5 | 0.00 | 0.00 | 0.00 | 1018.9 | |
| 20260905185623 | 12 | 178 | 20.9 | 32.2 | 0.00 | 0.00 | 0.00 | 1018.9 | |
| 20260905184655 | 12 | 177 | 32.2 | 40.2 | 0.00 | 0.00 | 0.00 | 1019.0 | |
| 20260905183725 | 12 | 136 | 29.0 | 32.2 | 0.00 | 0.00 | 0.00 | 1018.8 | |
| 20260905182815 | 12 | 135 | 25.7 | 32.2 | 0.00 | 0.00 | 0.00 | 1018.8 | |
| 20260905181822 | 12 | 149 | 20.9 | 32.2 | 0.00 | 0.00 | 0.00 | 1019.1 | |
| 20260905180933 | 12 | 170 | 25.7 | 32.2 | 0.00 | 0.00 | 0.00 | 1018.9 | |
| 20260905180125 | 12 | 143 | 17.7 | 25.7 | 0.00 | 0.00 | 0.00 | 1018.9 | |
| 20260905175241 | 12 | 162 | 20.9 | 25.7 | 0.00 | 0.00 | 0.00 | 1018.6 | |
| 20260905174256 | 12 | 147 | 14.5 | 14.5 | 0.00 | 0.00 | 0.00 | 1019.0 | |
| 20260905173315 | 12 | 177 | 43.5 | 64.4 | 0.00 | 0.00 | 0.00 | 1018.8 | |
| 20260905172442 | 12 | 156 | 43.5 | 61.2 | 0.00 | 0.00 | 0.00 | 1018.6 | |
| 20260905171525 | 12 | 209 | 32.2 | 40.2 | 0.00 | 0.00 | 0.00 | 1018.7 | |
| 20260905170631 | 13 | 170 | 14.5 | 17.7 | 0.00 | 0.00 | 0.00 | 1018.8 | |
| 20260905165754 | 13 | 173 | 17.7 | 40.2 | 0.00 | 0.00 | 0.00 | 1018.6 | |
| 20260905164833 | 13 | 164 | 32.2 | 54.7 | 0.00 | 0.00 | 0.00 | 1018.4 | |
| 20260905163816 | 13 | 176 | 29.0 | 40.2 | 0.00 | 0.00 | 0.00 | 1018.4 | |
| 20260905162933 | 14 | 119 | 20.9 | 40.2 | 0.00 | 0.00 | 0.00 | 1018.4 | |
| 20260905162035 | 14 | 143 | 25.7 | 32.2 | 0.00 | 0.00 | 0.00 | 1018.5 | |
| 20260905161135 | 14 | 138 | 6.4 | 14.5 | 0.00 | 0.00 | 0.00 | 1018.0 | |
| 20260905160242 | 14 | 133 | 25.7 | 32.2 | 0.00 | 0.00 | 0.00 | 1018.1 | |
| 20260905155332 | 14 | 147 | 20.9 | 25.7 | 0.00 | 0.00 | 0.00 | 1018.1 | |
| 20260905154443 | 14 | 148 | 0.0 | 0.0 | 0.00 | 0.00 | 0.00 | 1018.1 | |
| 20260905153535 | 14 | 148 | 11.3 | 14.5 | 0.00 | 0.00 | 0.00 | 1018.4 | |
| 20260905152625 | 13 | 142 | 6.4 | 6.4 | 0.00 | 0.00 | 0.00 | 1018.5 | |
| 20260905151732 | 13 | 214 | 14.5 | 17.7 | 0.00 | 0.00 | 0.00 | 1018.2 | |
| 20260905150916 | 13 | 155 | 11.3 | 14.5 | 0.00 | 0.00 | 0.00 | 1018.3 | |
| 20260905145905 | 13 | 131 | 14.5 | 14.5 | 0.00 | 0.00 | 0.00 | 1018.4 | |
| 20260905144922 | 14 | 164 | 43.5 | 54.7 | 0.00 | 0.00 | 0.00 | 1018.2 | |
| 20260905143952 | 16 | 147 | 14.5 | 25.7 | 0.00 | 0.00 | 0.00 | 1017.8 | |
| 20260905142942 | 17 | 143 | 17.7 | 25.7 | 0.00 | 0.00 | 0.00 | 1017.5 | |
| 20260905142048 | 18 | 181 | 14.5 | 17.7 | 0.00 | 0.00 | 0.00 | 1017.7 | |
| 20260905141222 | 19 | 168 | 35.4 | 64.4 | 0.00 | 0.00 | 0.00 | 1017.5 | |
| 20260905140355 | 19 | 123 | 14.5 | 17.7 | 0.00 | 0.00 | 0.00 | 1017.1 | |
| 20260905135355 | 18 | 207 | 14.5 | 17.7 | 0.00 | 0.00 | 0.00 | 1017.3 | |
| 20260905134422 | 19 | 159 | 17.7 | 17.7 | 0.00 | 0.00 | 0.00 | 1017.3 | |
| 20260905133455 | 20 | 149 | 20.9 | 40.2 | 0.00 | 0.00 | 0.00 | 1017.2 | |
| 20260905132622 | 20 | 140 | 17.7 | 25.7 | 0.00 | 0.00 | 0.00 | 1017.2 | |
| 20260905131752 | 19 | 152 | 11.3 | 25.7 | 0.00 | 0.00 | 0.00 | 1017.1 | |
| 20260905130954 | 19 | 153 | 17.7 | 40.2 | 0.00 | 0.00 | 0.00 | 1016.9 | |
| 20260905130025 | 19 | 201 | 29.0 | 40.2 | 0.00 | 0.00 | 0.00 | 1016.9 | |
| 20260905125056 | 19 | 152 | 43.5 | 46.7 | 0.00 | 0.00 | 0.00 | 1016.9 | |
| 20260905124117 | 19 | 213 | 20.9 | 32.2 | 0.00 | 0.00 | 0.00 | 1017.1 | |
| 20260905123255 | 18 | 214 | 14.5 | 14.5 | 0.00 | 0.00 | 0.00 | 1016.9 | |
| 20260905122339 | 18 | 189 | 14.5 | 25.7 | 0.00 | 0.00 | 0.00 | 1017.0 | |
| 20260905121453 | 19 | 191 | 17.7 | 25.7 | 0.00 | 0.00 | 0.00 | 1016.9 | |
| 20260905120535 | 19 | 194 | 32.2 | 54.7 | 0.00 | 0.00 | 0.00 | 1017.2 | |
| 20260905115555 | 18 | 180 | 20.9 | 54.7 | 0.00 | 0.00 | 0.00 | 1017.0 | |
| 20260905114532 | 20 | 122 | 46.7 | 64.4 | 0.00 | 0.00 | 0.00 | 1017.1 | |
| 20260905113732 | 20 | 166 | 43.5 | 61.2 | 0.00 | 0.00 | 0.00 | 1017.3 | |
| 20260905112915 | 18 | 187 | 40.2 | 64.4 | 0.00 | 0.00 | 0.00 | 1017.1 | |
| 20260905111936 | 18 | 179 | 20.9 | 40.2 | 0.00 | 0.00 | 0.00 | 1017.1 | |
| 20260905105824 | 17 | 135 | 40.2 | 61.2 | 0.00 | 0.00 | 0.00 | 1017.0 | |
| 20260905104957 | 18 | 158 | 20.9 | 32.2 | 0.00 | 0.00 | 0.00 | 1017.0 | |
| 20260905104044 | 18 | 219 | 29.0 | 61.2 | 0.00 | 0.00 | 0.00 | 1016.8 | |
| 20260905103117 | 17 | 161 | 14.5 | 25.7 | 0.00 | 0.00 | 0.00 | 1016.7 | |
| 20260905102217 | 17 | 194 | 14.5 | 17.7 | 0.00 | 0.00 | 0.00 | 1016.9 | |
| 20260905101224 | 18 | 161 | 14.5 | 17.7 | 0.00 | 0.00 | 0.00 | 1016.5 | |
| 20260905100337 | 18 | 160 | 49.9 | 86.9 | 0.00 | 0.00 | 0.00 | 1016.3 | |
| 20260905095344 | 17 | 191 | 17.7 | 32.2 | 0.00 | 0.00 | 0.00 | 1016.4 | |
| 20260905094424 | 17 | 178 | 29.0 | 46.7 | 0.00 | 0.00 | 0.00 | 1016.5 | |
| 20260905093545 | 17 | 145 | 6.4 | 14.5 | 0.00 | 0.00 | 0.00 | 1016.5 | |
| 20260905092644 | 17 | 139 | 20.9 | 25.7 | 0.00 | 0.00 | 0.00 | 1016.1 | |
| 20260905091757 | 18 | 230 | 17.7 | 40.2 | 0.00 | 0.00 | 0.00 | 1016.1 | |
| 20260905090820 | 17 | 199 | 43.5 | 61.2 | 0.00 | 0.00 | 0.00 | 1016.2 | |
| 20260905085914 | 17 | 114 | 20.9 | 32.2 | 0.00 | 0.00 | 0.00 | 1016.3 | |
| 20260905085000 | 16 | 168 | 17.7 | 25.7 | 0.00 | 0.00 | 0.00 | 1016.3 | |
| 20260905084047 | 16 | 224 | 25.7 | 32.2 | 0.00 | 0.00 | 0.00 | 1016.0 | |
| 20260905083117 | 17 | 140 | 43.5 | 54.7 | 0.00 | 0.00 | 0.00 | 1015.9 | |
| 20260905082255 | 17 | 100 | 20.9 | 32.2 | 0.00 | 0.00 | 0.00 | 1016.0 | |
| 20260905081334 | 16 | 150 | 17.7 | 25.7 | 0.00 | 0.00 | 0.00 | 1015.7 | |
| 20260905080357 | 16 | 184 | 32.2 | 54.7 | 0.00 | 0.00 | 0.00 | 1015.5 | |
| 20260905075534 | 16 | 169 | 32.2 | 61.2 | 0.00 | 0.00 | 0.00 | 1015.5 | |
| 20260905074704 | 16 | 152 | 14.5 | 25.7 | 0.00 | 0.00 | 0.00 | 1015.4 | |
| 20260905073707 | 16 | 163 | 14.5 | 17.7 | 0.00 | 0.00 | 0.00 | 1015.2 | |
| 20260905072744 | 15 | 176 | 25.7 | 40.2 | 0.00 | 0.00 | 0.00 | 1015.3 | |
| 20260905071944 | 15 | 164 | 14.5 | 17.7 | 0.00 | 0.00 | 0.00 | 1015.2 | |
| 20260905071115 | 15 | 141 | 25.7 | 40.2 | 0.00 | 0.00 | 0.00 | 1015.1 | |
| 20260905070244 | 15 | 170 | 14.5 | 17.7 | 0.00 | 0.00 | 0.00 | 1015.0 | |
| 20260905065317 | 15 | 160 | 17.7 | 25.7 | 0.00 | 0.00 | 0.00 | 1014.9 | |
| 20260905064447 | 15 | 162 | 20.9 | 25.7 | 0.00 | 0.00 | 0.00 | 1014.8 | |
| 20260905063454 | 15 | 156 | 46.7 | 86.9 | 0.00 | 0.00 | 0.00 | 1014.8 | |
| 20260905062617 | 15 | 149 | 17.7 | 32.2 | 0.00 | 0.00 | 0.00 | 1015.0 | |
| 20260905061607 | 15 | 167 | 17.7 | 25.7 | 0.00 | 0.00 | 0.00 | 1014.8 | |
| 20260905060657 | 14 | 159 | 20.9 | 25.7 | 0.00 | 0.00 | 0.00 | 1014.6 | |
| 20260905055737 | 15 | 125 | 20.9 | 32.2 | 0.00 | 0.00 | 0.00 | 1014.6 | |
| 20260905054757 | 15 | 198 | 17.7 | 17.7 | 0.00 | 0.00 | 0.00 | 1014.3 | |
| 20260905053832 | 15 | 141 | 11.3 | 17.7 | 0.00 | 0.00 | 0.00 | 1014.0 | |
| 20260905052926 | 15 | 181 | 20.9 | 25.7 | 0.00 | 0.00 | 0.00 | 1014.1 | |
| 20260905052037 | 14 | 138 | 17.7 | 17.7 | 0.00 | 0.00 | 0.00 | 1013.9 | |
| 20260905051104 | 14 | 162 | 11.3 | 14.5 | 0.00 | 0.00 | 0.00 | 1013.8 | |
| 20260905050117 | 14 | 165 | 14.5 | 17.7 | 0.00 | 0.00 | 0.00 | 1014.1 | |
| 20260905045124 | 13 | 154 | 14.5 | 17.7 | 0.00 | 0.00 | 0.00 | 1013.3 | |
| 20260905044236 | 13 | 138 | 6.4 | 14.5 | 0.00 | 0.00 | 0.00 | 1013.4 | |
| 20260905043257 | 13 | 172 | 32.2 | 54.7 | 0.00 | 0.00 | 0.00 | 1013.4 | |
| 20260905042437 | 13 | 144 | 14.5 | 17.7 | 0.00 | 0.00 | 0.00 | 1013.4 | |
| 20260905041517 | 14 | 148 | 14.5 | 17.7 | 0.00 | 0.00 | 0.00 | 1013.2 | |
| 20260905040559 | 14 | 168 | 20.9 | 40.2 | 0.00 | 0.00 | 0.00 | 1012.8 | |
| 20260905035757 | 14 | 163 | 49.9 | 101.4 | 0.00 | 0.00 | 0.00 | 1013.2 | |
| 20260905034824 | 14 | 167 | 25.7 | 46.7 | 0.00 | 0.00 | 0.00 | 1012.7 | |
| 20260905033919 | 14 | 109 | 17.7 | 17.7 | 0.00 | 0.00 | 0.00 | 1012.8 | |
| 20260905033026 | 14 | 171 | 14.5 | 25.7 | 0.00 | 0.00 | 0.00 | 1012.3 | |
| 20260905032014 | 14 | 182 | 14.5 | 17.7 | 0.00 | 0.00 | 0.00 | 1012.1 | |
| 20260905031045 | 14 | 173 | 29.0 | 40.2 | 0.00 | 0.00 | 0.00 | 1012.2 | |
| 20260905030134 | 15 | 170 | 17.7 | 40.2 | 0.00 | 0.00 | 0.00 | 1011.7 | |
| 20260905025213 | 15 | 137 | 11.3 | 17.7 | 0.00 | 0.00 | 0.00 | 1012.0 | |
| 20260905024404 | 15 | 152 | 17.7 | 25.7 | 0.00 | 0.00 | 0.00 | 1011.8 | |
| 20260905023417 | 15 | 167 | 20.9 | 46.7 | 0.00 | 0.00 | 0.00 | 1011.6 | |
| 20260905022547 | 15 | 116 | 17.7 | 25.7 | 0.00 | 0.00 | 0.00 | 1011.7 | |
| 20260905021556 | 15 | 192 | 43.5 | 64.4 | 0.00 | 0.00 | 0.00 | 1011.4 | |
| 20260905020749 | 15 | 173 | 49.9 | 86.9 | 0.00 | 0.00 | 0.00 | 1011.3 | |
| 20260905015833 | 15 | 135 | 17.7 | 25.7 | 0.00 | 0.00 | 0.00 | 1011.2 | |
| 20260905015007 | 15 | 137 | 32.2 | 46.7 | 0.00 | 0.00 | 0.00 | 1011.0 | |
| 20260905014013 | 15 | 171 | 40.2 | 54.7 | 0.00 | 0.00 | 0.00 | 1010.7 | |
| 20260905013026 | 15 | 155 | 11.3 | 14.5 | 0.00 | 0.00 | 0.00 | 1010.7 | |
| 20260905012126 | 15 | 177 | 17.7 | 25.7 | 0.00 | 0.00 | 0.00 | 1010.9 | |
| 20260905011237 | 15 | 123 | 25.7 | 32.2 | 0.00 | 0.00 | 0.00 | 1010.8 | |
| 20260905010354 | 15 | 144 | 32.2 | 46.7 | 0.00 | 0.00 | 0.00 | 1010.9 | |
| 20260905005344 | 15 | 157 | 17.7 | 17.7 | 0.00 | 0.00 | 0.00 | 1010.2 | |
| 20260905004404 | 16 | 164 | 14.5 | 17.7 | 0.00 | 0.00 | 0.00 | 1010.2 | |
| 20260905003457 | 15 | 138 | 25.7 | 40.2 | 0.00 | 0.00 | 0.00 | 1010.0 | |
| 20260905002514 | 15 | 187 | 32.2 | 72.4 | 0.00 | 0.00 | 0.00 | 1009.9 | |
| 20260905001644 | 16 | 133 | 25.7 | 32.2 | 0.00 | 0.00 | 0.00 | 1009.9 | |
| 20260905000657 | 16 | 124 | 3.2 | 6.4 | 0.00 | 0.00 | 0.00 | 1010.0 | |
| 20260904235833 | 16 | 158 | 17.7 | 25.7 | 0.00 | 0.00 | 0.00 | 1009.8 | |
| 20260904234857 | 16 | 165 | 17.7 | 25.7 | 0.00 | 0.00 | 0.00 | 1010.0 | |
| 20260904233854 | 16 | 143 | 29.0 | 32.2 | 0.00 | 0.00 | 0.00 | 1009.9 | |
| 20260904232904 | 16 | 173 | 14.5 | 17.7 | 0.00 | 0.00 | 0.00 | 1010.0 | |
| 20260904231844 | 16 | 155 | 17.7 | 17.7 | 0.00 | 0.00 | 0.00 | 1009.8 | |
| 20260904230959 | 16 | 156 | 20.9 | 32.2 | 0.00 | 0.00 | 0.00 | 1010.0 | |
| 20260904230015 | 16 | 187 | 32.2 | 32.2 | 0.00 | 0.00 | 0.00 | 1010.0 | |
| 20260904225127 | 16 | 173 | 20.9 | 25.7 | 0.00 | 0.00 | 0.00 | 1009.9 | |
| 20260904224124 | 16 | 143 | 11.3 | 14.5 | 0.00 | 0.00 | 0.00 | 1009.4 |